sensor_id;sensor_type;location;lat;lon;timestamp;temperature;humidity
36800;DHT22;22752;51.960;5.886;2023-08-06T00:00:23;16.20;99.90
36800;DHT22;22752;51.960;5.886;2023-08-06T00:02:49;16.20;99.90
36800;DHT22;22752;51.960;5.886;2023-08-06T00:05:15;16.30;99.90
36800;DHT22;22752;51.960;5.886;2023-08-06T00:07:49;16.30;99.90
36800;DHT22;22752;51.960;5.886;2023-08-06T00:10:15;16.30;99.90
36800;DHT22;22752;51.960;5.886;2023-08-06T00:12:41;16.30;99.90
36800;DHT22;22752;51.960;5.886;2023-08-06T00:15:07;16.30;99.90
36800;DHT22;22752;51.960;5.886;2023-08-06T00:17:34;16.30;99.90
36800;DHT22;22752;51.960;5.886;2023-08-06T00:20:00;16.30;99.90
36800;DHT22;22752;51.960;5.886;2023-08-06T00:22:31;16.30;99.90
36800;DHT22;22752;51.960;5.886;2023-08-06T00:24:57;16.20;99.90
36800;DHT22;22752;51.960;5.886;2023-08-06T00:27:23;16.20;99.90
36800;DHT22;22752;51.960;5.886;2023-08-06T00:29:49;16.20;99.90
36800;DHT22;22752;51.960;5.886;2023-08-06T00:32:15;16.10;99.90
36800;DHT22;22752;51.960;5.886;2023-08-06T00:34:40;16.10;99.90
36800;DHT22;22752;51.960;5.886;2023-08-06T00:37:06;16.10;99.90
36800;DHT22;22752;51.960;5.886;2023-08-06T00:39:31;16.00;99.90
36800;DHT22;22752;51.960;5.886;2023-08-06T00:41:57;16.00;99.90
36800;DHT22;22752;51.960;5.886;2023-08-06T00:44:23;16.00;99.90
36800;DHT22;22752;51.960;5.886;2023-08-06T00:46:49;16.00;99.90
36800;DHT22;22752;51.960;5.886;2023-08-06T00:49:15;16.00;99.90
36800;DHT22;22752;51.960;5.886;2023-08-06T00:51:42;15.90;99.90
36800;DHT22;22752;51.960;5.886;2023-08-06T00:54:09;15.90;99.90
36800;DHT22;22752;51.960;5.886;2023-08-06T00:56:35;15.90;99.90
36800;DHT22;22752;51.960;5.886;2023-08-06T00:59:03;15.90;99.90
36800;DHT22;22752;51.960;5.886;2023-08-06T01:01:29;15.80;99.90
36800;DHT22;22752;51.960;5.886;2023-08-06T01:03:55;15.80;99.90
36800;DHT22;22752;51.960;5.886;2023-08-06T01:06:39;15.80;99.90
36800;DHT22;22752;51.960;5.886;2023-08-06T01:12:06;15.70;99.90
36800;DHT22;22752;51.960;5.886;2023-08-06T01:14:50;15.60;99.90
36800;DHT22;22752;51.960;5.886;2023-08-06T01:17:17;15.60;99.90
36800;DHT22;22752;51.960;5.886;2023-08-06T01:19:43;15.60;99.90
36800;DHT22;22752;51.960;5.886;2023-08-06T01:22:09;15.50;99.90
36800;DHT22;22752;51.960;5.886;2023-08-06T01:24:35;15.60;99.90
36800;DHT22;22752;51.960;5.886;2023-08-06T01:27:09;15.50;99.90
36800;DHT22;22752;51.960;5.886;2023-08-06T01:29:45;15.60;99.90
36800;DHT22;22752;51.960;5.886;2023-08-06T01:32:14;15.60;99.90
36800;DHT22;22752;51.960;5.886;2023-08-06T01:34:41;15.50;99.90
36800;DHT22;22752;51.960;5.886;2023-08-06T01:37:09;15.50;99.90
36800;DHT22;22752;51.960;5.886;2023-08-06T01:39:35;15.50;99.90
36800;DHT22;22752;51.960;5.886;2023-08-06T01:42:01;15.50;99.90
36800;DHT22;22752;51.960;5.886;2023-08-06T01:44:27;15.50;99.90
36800;DHT22;22752;51.960;5.886;2023-08-06T01:46:53;15.50;99.90
36800;DHT22;22752;51.960;5.886;2023-08-06T01:49:18;15.50;99.90
36800;DHT22;22752;51.960;5.886;2023-08-06T01:51:44;15.50;99.90
36800;DHT22;22752;51.960;5.886;2023-08-06T01:54:10;15.40;99.90
36800;DHT22;22752;51.960;5.886;2023-08-06T01:56:35;15.40;99.90
36800;DHT22;22752;51.960;5.886;2023-08-06T01:59:01;15.50;99.90
36800;DHT22;22752;51.960;5.886;2023-08-06T02:01:26;15.40;99.90
36800;DHT22;22752;51.960;5.886;2023-08-06T02:03:52;15.40;99.90
36800;DHT22;22752;51.960;5.886;2023-08-06T02:06:18;15.50;99.90
36800;DHT22;22752;51.960;5.886;2023-08-06T02:08:43;15.50;99.90
36800;DHT22;22752;51.960;5.886;2023-08-06T02:11:09;15.50;99.90
36800;DHT22;22752;51.960;5.886;2023-08-06T02:13:35;15.50;99.90
36800;DHT22;22752;51.960;5.886;2023-08-06T02:16:00;15.50;99.90
36800;DHT22;22752;51.960;5.886;2023-08-06T02:18:26;15.50;99.90
36800;DHT22;22752;51.960;5.886;2023-08-06T02:20:56;15.50;99.90
36800;DHT22;22752;51.960;5.886;2023-08-06T02:23:23;15.50;99.90
36800;DHT22;22752;51.960;5.886;2023-08-06T02:25:48;15.50;99.90
36800;DHT22;22752;51.960;5.886;2023-08-06T02:28:14;15.50;99.90
36800;DHT22;22752;51.960;5.886;2023-08-06T02:30:39;15.50;99.90
36800;DHT22;22752;51.960;5.886;2023-08-06T02:33:14;15.50;99.90
36800;DHT22;22752;51.960;5.886;2023-08-06T02:35:40;15.40;99.90
36800;DHT22;22752;51.960;5.886;2023-08-06T02:38:05;15.40;99.90
36800;DHT22;22752;51.960;5.886;2023-08-06T02:40:31;15.40;99.90
36800;DHT22;22752;51.960;5.886;2023-08-06T02:42:57;15.40;99.90
36800;DHT22;22752;51.960;5.886;2023-08-06T02:45:22;15.50;99.90
36800;DHT22;22752;51.960;5.886;2023-08-06T02:47:48;15.50;99.90
36800;DHT22;22752;51.960;5.886;2023-08-06T02:50:13;15.50;99.90
36800;DHT22;22752;51.960;5.886;2023-08-06T02:52:39;15.50;99.90
36800;DHT22;22752;51.960;5.886;2023-08-06T02:55:06;15.50;99.90
36800;DHT22;22752;51.960;5.886;2023-08-06T02:57:32;15.50;99.90
36800;DHT22;22752;51.960;5.886;2023-08-06T02:59:57;15.50;99.90
36800;DHT22;22752;51.960;5.886;2023-08-06T03:02:23;15.50;99.90
36800;DHT22;22752;51.960;5.886;2023-08-06T03:04:48;15.50;99.90
36800;DHT22;22752;51.960;5.886;2023-08-06T03:07:14;15.50;99.90
36800;DHT22;22752;51.960;5.886;2023-08-06T03:09:40;15.50;99.90
36800;DHT22;22752;51.960;5.886;2023-08-06T03:12:06;15.50;99.90
36800;DHT22;22752;51.960;5.886;2023-08-06T03:14:31;15.50;99.90
36800;DHT22;22752;51.960;5.886;2023-08-06T03:16:57;15.40;99.90
36800;DHT22;22752;51.960;5.886;2023-08-06T03:19:23;15.50;99.90
36800;DHT22;22752;51.960;5.886;2023-08-06T03:21:48;15.50;99.90
36800;DHT22;22752;51.960;5.886;2023-08-06T03:24:14;15.50;99.90
36800;DHT22;22752;51.960;5.886;2023-08-06T03:26:40;15.50;99.90
36800;DHT22;22752;51.960;5.886;2023-08-06T03:29:05;15.50;99.90
36800;DHT22;22752;51.960;5.886;2023-08-06T03:31:31;15.50;99.90
36800;DHT22;22752;51.960;5.886;2023-08-06T03:33:56;15.60;99.90
36800;DHT22;22752;51.960;5.886;2023-08-06T03:36:22;15.50;99.90
36800;DHT22;22752;51.960;5.886;2023-08-06T03:38:49;15.60;99.90
36800;DHT22;22752;51.960;5.886;2023-08-06T03:41:14;15.50;99.90
36800;DHT22;22752;51.960;5.886;2023-08-06T03:43:40;15.60;99.90
36800;DHT22;22752;51.960;5.886;2023-08-06T03:46:06;15.60;99.90
36800;DHT22;22752;51.960;5.886;2023-08-06T03:48:31;15.60;99.90
36800;DHT22;22752;51.960;5.886;2023-08-06T03:50:57;15.60;99.90
36800;DHT22;22752;51.960;5.886;2023-08-06T03:53:22;15.60;99.90
36800;DHT22;22752;51.960;5.886;2023-08-06T03:55:48;15.60;99.90
36800;DHT22;22752;51.960;5.886;2023-08-06T03:58:14;15.60;99.90
36800;DHT22;22752;51.960;5.886;2023-08-06T04:00:39;15.60;99.90
36800;DHT22;22752;51.960;5.886;2023-08-06T04:03:05;15.60;99.90
36800;DHT22;22752;51.960;5.886;2023-08-06T04:05:34;15.60;99.90
36800;DHT22;22752;51.960;5.886;2023-08-06T04:07:59;15.70;99.90
36800;DHT22;22752;51.960;5.886;2023-08-06T04:10:25;15.70;99.90
36800;DHT22;22752;51.960;5.886;2023-08-06T04:12:51;15.70;99.90
36800;DHT22;22752;51.960;5.886;2023-08-06T04:15:16;15.70;99.90
36800;DHT22;22752;51.960;5.886;2023-08-06T04:17:42;15.70;99.90
36800;DHT22;22752;51.960;5.886;2023-08-06T04:20:08;15.70;99.90
36800;DHT22;22752;51.960;5.886;2023-08-06T04:22:34;15.70;99.90
36800;DHT22;22752;51.960;5.886;2023-08-06T04:24:59;15.70;99.90
36800;DHT22;22752;51.960;5.886;2023-08-06T04:27:25;15.70;99.90
36800;DHT22;22752;51.960;5.886;2023-08-06T04:29:51;15.70;99.90
36800;DHT22;22752;51.960;5.886;2023-08-06T04:32:16;15.70;99.90
36800;DHT22;22752;51.960;5.886;2023-08-06T04:34:44;15.70;99.90
36800;DHT22;22752;51.960;5.886;2023-08-06T04:37:10;15.70;99.90
36800;DHT22;22752;51.960;5.886;2023-08-06T04:39:35;15.70;99.90
36800;DHT22;22752;51.960;5.886;2023-08-06T04:42:01;15.80;99.90
36800;DHT22;22752;51.960;5.886;2023-08-06T04:44:27;15.80;99.90
36800;DHT22;22752;51.960;5.886;2023-08-06T04:46:52;15.80;99.90
36800;DHT22;22752;51.960;5.886;2023-08-06T04:49:21;15.80;99.90
36800;DHT22;22752;51.960;5.886;2023-08-06T04:51:47;15.80;99.90
36800;DHT22;22752;51.960;5.886;2023-08-06T04:54:12;15.80;99.90
36800;DHT22;22752;51.960;5.886;2023-08-06T04:56:38;15.80;99.90
36800;DHT22;22752;51.960;5.886;2023-08-06T04:59:04;15.90;99.90
36800;DHT22;22752;51.960;5.886;2023-08-06T05:01:29;15.90;99.90
36800;DHT22;22752;51.960;5.886;2023-08-06T05:03:55;15.90;99.90
36800;DHT22;22752;51.960;5.886;2023-08-06T05:06:21;15.90;99.90
36800;DHT22;22752;51.960;5.886;2023-08-06T05:08:46;16.00;99.90
36800;DHT22;22752;51.960;5.886;2023-08-06T05:11:12;16.00;99.90
36800;DHT22;22752;51.960;5.886;2023-08-06T05:13:37;16.00;99.90
36800;DHT22;22752;51.960;5.886;2023-08-06T05:16:03;16.10;99.90
36800;DHT22;22752;51.960;5.886;2023-08-06T05:18:29;16.20;99.90
36800;DHT22;22752;51.960;5.886;2023-08-06T05:20:56;16.20;99.90
36800;DHT22;22752;51.960;5.886;2023-08-06T05:23:21;16.20;99.90
36800;DHT22;22752;51.960;5.886;2023-08-06T05:25:47;16.30;99.90
36800;DHT22;22752;51.960;5.886;2023-08-06T05:28:12;16.30;99.90
36800;DHT22;22752;51.960;5.886;2023-08-06T05:30:41;16.30;99.90
36800;DHT22;22752;51.960;5.886;2023-08-06T05:33:07;16.40;99.90
36800;DHT22;22752;51.960;5.886;2023-08-06T05:35:32;16.40;99.90
36800;DHT22;22752;51.960;5.886;2023-08-06T05:37:58;16.40;99.90
36800;DHT22;22752;51.960;5.886;2023-08-06T05:40:24;16.40;99.90
36800;DHT22;22752;51.960;5.886;2023-08-06T05:42:52;16.40;99.90
36800;DHT22;22752;51.960;5.886;2023-08-06T05:45:18;16.40;99.90
36800;DHT22;22752;51.960;5.886;2023-08-06T05:47:44;16.40;99.90
36800;DHT22;22752;51.960;5.886;2023-08-06T05:50:09;16.40;99.90
36800;DHT22;22752;51.960;5.886;2023-08-06T05:52:35;16.40;99.90
36800;DHT22;22752;51.960;5.886;2023-08-06T05:55:01;16.30;99.90
36800;DHT22;22752;51.960;5.886;2023-08-06T05:57:26;16.40;99.90
36800;DHT22;22752;51.960;5.886;2023-08-06T05:59:52;16.40;99.90
36800;DHT22;22752;51.960;5.886;2023-08-06T06:02:18;16.40;99.90
36800;DHT22;22752;51.960;5.886;2023-08-06T06:04:44;16.30;99.90
36800;DHT22;22752;51.960;5.886;2023-08-06T06:07:09;16.40;99.90
36800;DHT22;22752;51.960;5.886;2023-08-06T06:09:35;16.40;99.90
36800;DHT22;22752;51.960;5.886;2023-08-06T06:12:01;16.50;99.90
36800;DHT22;22752;51.960;5.886;2023-08-06T06:14:26;16.50;99.90
36800;DHT22;22752;51.960;5.886;2023-08-06T06:16:52;16.50;99.90
36800;DHT22;22752;51.960;5.886;2023-08-06T06:19:18;16.50;99.90
36800;DHT22;22752;51.960;5.886;2023-08-06T06:21:44;16.50;99.90
36800;DHT22;22752;51.960;5.886;2023-08-06T06:24:09;16.60;99.90
36800;DHT22;22752;51.960;5.886;2023-08-06T06:26:35;16.60;99.90
36800;DHT22;22752;51.960;5.886;2023-08-06T06:29:01;16.60;99.90
36800;DHT22;22752;51.960;5.886;2023-08-06T06:31:26;16.60;99.90
36800;DHT22;22752;51.960;5.886;2023-08-06T06:33:52;16.60;99.90
36800;DHT22;22752;51.960;5.886;2023-08-06T06:36:19;16.60;99.90
36800;DHT22;22752;51.960;5.886;2023-08-06T06:38:45;16.60;99.90
36800;DHT22;22752;51.960;5.886;2023-08-06T06:41:11;16.50;99.90
36800;DHT22;22752;51.960;5.886;2023-08-06T06:43:37;16.50;99.90
36800;DHT22;22752;51.960;5.886;2023-08-06T06:46:05;16.50;99.90
36800;DHT22;22752;51.960;5.886;2023-08-06T06:48:32;16.50;99.90
36800;DHT22;22752;51.960;5.886;2023-08-06T06:50:58;16.50;99.90
36800;DHT22;22752;51.960;5.886;2023-08-06T06:53:24;16.40;99.90
36800;DHT22;22752;51.960;5.886;2023-08-06T06:55:54;16.40;99.90
36800;DHT22;22752;51.960;5.886;2023-08-06T06:58:20;16.40;99.90
36800;DHT22;22752;51.960;5.886;2023-08-06T07:00:47;16.30;99.90
36800;DHT22;22752;51.960;5.886;2023-08-06T07:03:14;16.30;99.90
36800;DHT22;22752;51.960;5.886;2023-08-06T07:05:39;16.20;99.90
36800;DHT22;22752;51.960;5.886;2023-08-06T07:08:05;16.20;99.90
36800;DHT22;22752;51.960;5.886;2023-08-06T07:10:31;16.20;99.90
36800;DHT22;22752;51.960;5.886;2023-08-06T07:12:56;16.30;99.90
36800;DHT22;22752;51.960;5.886;2023-08-06T07:15:22;16.30;99.90
36800;DHT22;22752;51.960;5.886;2023-08-06T07:17:47;16.40;99.90
36800;DHT22;22752;51.960;5.886;2023-08-06T07:20:13;16.40;99.90
36800;DHT22;22752;51.960;5.886;2023-08-06T07:22:39;16.50;99.90
36800;DHT22;22752;51.960;5.886;2023-08-06T07:25:04;16.50;99.90
36800;DHT22;22752;51.960;5.886;2023-08-06T07:27:30;16.50;99.90
36800;DHT22;22752;51.960;5.886;2023-08-06T07:29:56;16.50;99.90
36800;DHT22;22752;51.960;5.886;2023-08-06T07:32:21;16.50;99.90
36800;DHT22;22752;51.960;5.886;2023-08-06T07:34:47;16.50;99.90
36800;DHT22;22752;51.960;5.886;2023-08-06T07:37:12;16.50;99.90
36800;DHT22;22752;51.960;5.886;2023-08-06T07:39:38;16.40;99.90
36800;DHT22;22752;51.960;5.886;2023-08-06T07:42:05;16.40;99.90
36800;DHT22;22752;51.960;5.886;2023-08-06T07:44:32;16.50;99.90
36800;DHT22;22752;51.960;5.886;2023-08-06T07:46:58;16.60;99.90
36800;DHT22;22752;51.960;5.886;2023-08-06T07:49:23;16.60;99.90
36800;DHT22;22752;51.960;5.886;2023-08-06T07:51:50;16.60;99.90
36800;DHT22;22752;51.960;5.886;2023-08-06T07:54:17;16.70;99.90
36800;DHT22;22752;51.960;5.886;2023-08-06T07:56:42;16.80;99.90
36800;DHT22;22752;51.960;5.886;2023-08-06T07:59:08;17.00;99.90
36800;DHT22;22752;51.960;5.886;2023-08-06T08:01:34;17.10;99.90
36800;DHT22;22752;51.960;5.886;2023-08-06T08:04:00;17.20;99.90
36800;DHT22;22752;51.960;5.886;2023-08-06T08:06:25;17.10;99.90
36800;DHT22;22752;51.960;5.886;2023-08-06T08:08:51;17.10;99.90
36800;DHT22;22752;51.960;5.886;2023-08-06T08:11:17;17.20;99.90
36800;DHT22;22752;51.960;5.886;2023-08-06T08:13:44;17.20;99.90
36800;DHT22;22752;51.960;5.886;2023-08-06T08:16:10;17.40;99.90
36800;DHT22;22752;51.960;5.886;2023-08-06T08:18:35;17.50;99.90
36800;DHT22;22752;51.960;5.886;2023-08-06T08:21:01;17.60;99.90
36800;DHT22;22752;51.960;5.886;2023-08-06T08:23:27;17.70;99.90
36800;DHT22;22752;51.960;5.886;2023-08-06T08:25:52;17.70;99.90
36800;DHT22;22752;51.960;5.886;2023-08-06T08:28:18;17.70;99.90
36800;DHT22;22752;51.960;5.886;2023-08-06T08:30:44;17.80;99.90
36800;DHT22;22752;51.960;5.886;2023-08-06T08:33:10;17.80;99.90
36800;DHT22;22752;51.960;5.886;2023-08-06T08:35:36;17.90;99.90
36800;DHT22;22752;51.960;5.886;2023-08-06T08:38:02;18.00;99.90
36800;DHT22;22752;51.960;5.886;2023-08-06T08:40:31;18.10;99.90
36800;DHT22;22752;51.960;5.886;2023-08-06T08:42:58;18.20;99.90
36800;DHT22;22752;51.960;5.886;2023-08-06T08:45:26;18.30;99.90
36800;DHT22;22752;51.960;5.886;2023-08-06T08:47:54;18.30;99.90
36800;DHT22;22752;51.960;5.886;2023-08-06T08:50:21;18.30;99.90
36800;DHT22;22752;51.960;5.886;2023-08-06T08:52:47;18.30;99.90
36800;DHT22;22752;51.960;5.886;2023-08-06T08:55:15;18.30;99.90
36800;DHT22;22752;51.960;5.886;2023-08-06T08:57:41;18.40;99.90
36800;DHT22;22752;51.960;5.886;2023-08-06T09:00:07;18.40;99.90
36800;DHT22;22752;51.960;5.886;2023-08-06T09:02:33;18.40;99.90
36800;DHT22;22752;51.960;5.886;2023-08-06T09:05:00;18.50;99.90
36800;DHT22;22752;51.960;5.886;2023-08-06T09:07:31;18.60;99.90
36800;DHT22;22752;51.960;5.886;2023-08-06T09:09:58;18.60;99.90
36800;DHT22;22752;51.960;5.886;2023-08-06T09:12:24;18.60;99.90
36800;DHT22;22752;51.960;5.886;2023-08-06T09:14:51;18.70;99.90
36800;DHT22;22752;51.960;5.886;2023-08-06T09:17:17;18.90;99.90
36800;DHT22;22752;51.960;5.886;2023-08-06T09:19:46;19.10;99.90
36800;DHT22;22752;51.960;5.886;2023-08-06T09:22:13;19.20;99.90
36800;DHT22;22752;51.960;5.886;2023-08-06T09:24:43;19.40;99.90
36800;DHT22;22752;51.960;5.886;2023-08-06T09:27:13;19.40;99.90
36800;DHT22;22752;51.960;5.886;2023-08-06T09:29:46;19.40;99.90
36800;DHT22;22752;51.960;5.886;2023-08-06T09:32:14;19.30;99.90
36800;DHT22;22752;51.960;5.886;2023-08-06T09:34:41;19.20;99.90
36800;DHT22;22752;51.960;5.886;2023-08-06T09:37:09;19.30;99.90
36800;DHT22;22752;51.960;5.886;2023-08-06T09:39:36;19.30;99.90
36800;DHT22;22752;51.960;5.886;2023-08-06T09:42:02;19.20;99.90
36800;DHT22;22752;51.960;5.886;2023-08-06T09:44:29;19.10;99.90
36800;DHT22;22752;51.960;5.886;2023-08-06T09:46:56;18.90;99.90
36800;DHT22;22752;51.960;5.886;2023-08-06T09:49:26;18.70;99.90
36800;DHT22;22752;51.960;5.886;2023-08-06T09:51:53;18.50;99.90
36800;DHT22;22752;51.960;5.886;2023-08-06T09:54:22;18.40;99.90
36800;DHT22;22752;51.960;5.886;2023-08-06T09:56:49;18.40;99.90
36800;DHT22;22752;51.960;5.886;2023-08-06T09:59:15;18.30;99.90
36800;DHT22;22752;51.960;5.886;2023-08-06T10:01:41;18.20;99.90
36800;DHT22;22752;51.960;5.886;2023-08-06T10:04:07;18.10;99.90
36800;DHT22;22752;51.960;5.886;2023-08-06T10:06:37;18.00;99.90
36800;DHT22;22752;51.960;5.886;2023-08-06T10:09:04;17.90;99.90
36800;DHT22;22752;51.960;5.886;2023-08-06T10:11:30;17.90;99.90
36800;DHT22;22752;51.960;5.886;2023-08-06T10:14:12;17.70;99.90
36800;DHT22;22752;51.960;5.886;2023-08-06T10:16:40;17.60;99.90
36800;DHT22;22752;51.960;5.886;2023-08-06T10:19:09;17.40;99.90
36800;DHT22;22752;51.960;5.886;2023-08-06T10:21:35;17.40;99.90
36800;DHT22;22752;51.960;5.886;2023-08-06T10:24:00;17.30;99.90
36800;DHT22;22752;51.960;5.886;2023-08-06T10:26:29;17.20;99.90
36800;DHT22;22752;51.960;5.886;2023-08-06T10:28:56;16.80;99.90
36800;DHT22;22752;51.960;5.886;2023-08-06T10:31:55;16.40;99.90
36800;DHT22;22752;51.960;5.886;2023-08-06T10:34:21;16.20;99.90
36800;DHT22;22752;51.960;5.886;2023-08-06T10:36:46;16.10;99.90
36800;DHT22;22752;51.960;5.886;2023-08-06T10:39:15;16.00;99.90
36800;DHT22;22752;51.960;5.886;2023-08-06T10:41:42;15.90;99.90
36800;DHT22;22752;51.960;5.886;2023-08-06T10:44:11;15.90;99.90
36800;DHT22;22752;51.960;5.886;2023-08-06T10:46:37;15.90;99.90
36800;DHT22;22752;51.960;5.886;2023-08-06T10:49:04;16.00;99.90
36800;DHT22;22752;51.960;5.886;2023-08-06T10:51:29;15.90;99.90
36800;DHT22;22752;51.960;5.886;2023-08-06T10:53:56;15.90;99.90
36800;DHT22;22752;51.960;5.886;2023-08-06T10:56:24;15.90;99.90
36800;DHT22;22752;51.960;5.886;2023-08-06T10:58:56;15.90;99.90
36800;DHT22;22752;51.960;5.886;2023-08-06T11:01:23;15.90;99.90
36800;DHT22;22752;51.960;5.886;2023-08-06T11:03:49;15.90;99.90
36800;DHT22;22752;51.960;5.886;2023-08-06T11:06:20;15.90;99.90
36800;DHT22;22752;51.960;5.886;2023-08-06T11:08:51;15.80;99.90
36800;DHT22;22752;51.960;5.886;2023-08-06T11:11:17;15.80;99.90
36800;DHT22;22752;51.960;5.886;2023-08-06T11:13:47;15.80;99.90
36800;DHT22;22752;51.960;5.886;2023-08-06T11:16:18;15.80;99.90
36800;DHT22;22752;51.960;5.886;2023-08-06T11:18:45;15.80;99.90
36800;DHT22;22752;51.960;5.886;2023-08-06T11:21:11;15.80;99.90
36800;DHT22;22752;51.960;5.886;2023-08-06T11:23:41;15.80;99.90
36800;DHT22;22752;51.960;5.886;2023-08-06T11:26:07;15.80;99.90
36800;DHT22;22752;51.960;5.886;2023-08-06T11:28:33;15.80;99.90
36800;DHT22;22752;51.960;5.886;2023-08-06T11:30:58;15.90;99.90
36800;DHT22;22752;51.960;5.886;2023-08-06T11:33:27;15.80;99.90
36800;DHT22;22752;51.960;5.886;2023-08-06T11:35:58;15.80;99.90
36800;DHT22;22752;51.960;5.886;2023-08-06T11:38:28;15.90;99.90
36800;DHT22;22752;51.960;5.886;2023-08-06T11:40:54;16.00;99.90
36800;DHT22;22752;51.960;5.886;2023-08-06T11:43:20;16.00;99.90
36800;DHT22;22752;51.960;5.886;2023-08-06T11:45:51;16.00;99.90
36800;DHT22;22752;51.960;5.886;2023-08-06T11:48:19;16.00;99.90
36800;DHT22;22752;51.960;5.886;2023-08-06T11:50:45;16.00;99.90
36800;DHT22;22752;51.960;5.886;2023-08-06T11:53:13;16.10;99.90
36800;DHT22;22752;51.960;5.886;2023-08-06T11:55:40;16.10;99.90
36800;DHT22;22752;51.960;5.886;2023-08-06T11:58:06;16.10;99.90
36800;DHT22;22752;51.960;5.886;2023-08-06T12:00:32;16.10;99.90
36800;DHT22;22752;51.960;5.886;2023-08-06T12:02:58;16.10;99.90
36800;DHT22;22752;51.960;5.886;2023-08-06T12:05:33;16.00;99.90
36800;DHT22;22752;51.960;5.886;2023-08-06T12:08:00;16.00;99.90
36800;DHT22;22752;51.960;5.886;2023-08-06T12:10:28;15.90;99.90
36800;DHT22;22752;51.960;5.886;2023-08-06T12:12:54;15.80;99.90
36800;DHT22;22752;51.960;5.886;2023-08-06T12:15:20;15.80;99.90
36800;DHT22;22752;51.960;5.886;2023-08-06T12:17:46;15.70;99.90
36800;DHT22;22752;51.960;5.886;2023-08-06T12:20:12;15.70;99.90
36800;DHT22;22752;51.960;5.886;2023-08-06T12:22:38;15.80;99.90
36800;DHT22;22752;51.960;5.886;2023-08-06T12:25:07;15.70;99.90
36800;DHT22;22752;51.960;5.886;2023-08-06T12:27:41;15.70;99.90
36800;DHT22;22752;51.960;5.886;2023-08-06T12:30:08;15.70;99.90
36800;DHT22;22752;51.960;5.886;2023-08-06T12:32:34;15.70;99.90
36800;DHT22;22752;51.960;5.886;2023-08-06T12:35:00;15.70;99.90
36800;DHT22;22752;51.960;5.886;2023-08-06T12:37:27;15.70;99.90
36800;DHT22;22752;51.960;5.886;2023-08-06T12:39:52;15.70;99.90
36800;DHT22;22752;51.960;5.886;2023-08-06T12:42:18;15.60;99.90
36800;DHT22;22752;51.960;5.886;2023-08-06T12:44:44;15.60;99.90
36800;DHT22;22752;51.960;5.886;2023-08-06T12:47:10;15.60;99.90
36800;DHT22;22752;51.960;5.886;2023-08-06T12:49:35;15.60;99.90
36800;DHT22;22752;51.960;5.886;2023-08-06T12:52:01;15.60;99.90
36800;DHT22;22752;51.960;5.886;2023-08-06T12:54:28;15.60;99.90
36800;DHT22;22752;51.960;5.886;2023-08-06T12:56:54;15.50;99.90
36800;DHT22;22752;51.960;5.886;2023-08-06T12:59:20;15.50;99.90
36800;DHT22;22752;51.960;5.886;2023-08-06T13:01:46;15.50;99.90
36800;DHT22;22752;51.960;5.886;2023-08-06T13:04:12;15.40;99.90
36800;DHT22;22752;51.960;5.886;2023-08-06T13:06:38;15.40;99.90
36800;DHT22;22752;51.960;5.886;2023-08-06T13:09:11;15.40;99.90
36800;DHT22;22752;51.960;5.886;2023-08-06T13:14:13;15.40;99.90
36800;DHT22;22752;51.960;5.886;2023-08-06T13:16:40;15.40;99.90
36800;DHT22;22752;51.960;5.886;2023-08-06T13:19:07;15.40;99.90
36800;DHT22;22752;51.960;5.886;2023-08-06T13:21:35;15.40;99.90
36800;DHT22;22752;51.960;5.886;2023-08-06T13:24:02;15.40;99.90
36800;DHT22;22752;51.960;5.886;2023-08-06T13:26:30;15.40;99.90
36800;DHT22;22752;51.960;5.886;2023-08-06T13:28:58;15.40;99.90
36800;DHT22;22752;51.960;5.886;2023-08-06T13:31:24;15.40;99.90
36800;DHT22;22752;51.960;5.886;2023-08-06T13:33:49;15.40;99.90
36800;DHT22;22752;51.960;5.886;2023-08-06T13:36:16;15.30;99.90
36800;DHT22;22752;51.960;5.886;2023-08-06T13:38:42;15.40;99.90
36800;DHT22;22752;51.960;5.886;2023-08-06T13:41:08;15.40;99.90
36800;DHT22;22752;51.960;5.886;2023-08-06T13:43:33;15.40;99.90
36800;DHT22;22752;51.960;5.886;2023-08-06T13:45:59;15.40;99.90
36800;DHT22;22752;51.960;5.886;2023-08-06T13:48:24;15.50;99.90
36800;DHT22;22752;51.960;5.886;2023-08-06T13:50:50;15.40;99.90
36800;DHT22;22752;51.960;5.886;2023-08-06T13:53:16;15.50;99.90
36800;DHT22;22752;51.960;5.886;2023-08-06T13:55:41;15.50;99.90
36800;DHT22;22752;51.960;5.886;2023-08-06T13:58:07;15.50;99.90
36800;DHT22;22752;51.960;5.886;2023-08-06T14:00:35;15.50;99.90
36800;DHT22;22752;51.960;5.886;2023-08-06T14:03:01;15.50;99.90
36800;DHT22;22752;51.960;5.886;2023-08-06T14:05:26;15.50;99.90
36800;DHT22;22752;51.960;5.886;2023-08-06T14:07:52;15.50;99.90
36800;DHT22;22752;51.960;5.886;2023-08-06T14:10:18;15.50;99.90
36800;DHT22;22752;51.960;5.886;2023-08-06T14:12:43;15.50;99.90
36800;DHT22;22752;51.960;5.886;2023-08-06T14:15:10;15.50;99.90
36800;DHT22;22752;51.960;5.886;2023-08-06T14:17:36;15.60;99.90
36800;DHT22;22752;51.960;5.886;2023-08-06T14:20:02;15.60;99.90
36800;DHT22;22752;51.960;5.886;2023-08-06T14:22:30;15.70;99.90
36800;DHT22;22752;51.960;5.886;2023-08-06T14:24:59;15.70;99.90
36800;DHT22;22752;51.960;5.886;2023-08-06T14:27:25;15.70;99.90
36800;DHT22;22752;51.960;5.886;2023-08-06T14:29:51;15.80;99.90
36800;DHT22;22752;51.960;5.886;2023-08-06T14:32:16;15.80;99.90
36800;DHT22;22752;51.960;5.886;2023-08-06T14:34:44;15.80;99.90
36800;DHT22;22752;51.960;5.886;2023-08-06T14:37:10;15.80;99.90
36800;DHT22;22752;51.960;5.886;2023-08-06T14:39:36;15.90;99.90
36800;DHT22;22752;51.960;5.886;2023-08-06T14:42:03;15.90;99.90
36800;DHT22;22752;51.960;5.886;2023-08-06T14:44:29;15.90;99.90
36800;DHT22;22752;51.960;5.886;2023-08-06T14:46:54;16.00;99.90
36800;DHT22;22752;51.960;5.886;2023-08-06T14:49:20;16.00;99.90
36800;DHT22;22752;51.960;5.886;2023-08-06T14:51:46;16.00;99.90
36800;DHT22;22752;51.960;5.886;2023-08-06T14:54:11;16.00;99.90
36800;DHT22;22752;51.960;5.886;2023-08-06T14:56:37;16.00;99.90
36800;DHT22;22752;51.960;5.886;2023-08-06T14:59:03;16.00;99.90
36800;DHT22;22752;51.960;5.886;2023-08-06T15:01:29;16.00;99.90
36800;DHT22;22752;51.960;5.886;2023-08-06T15:03:55;16.00;99.90
36800;DHT22;22752;51.960;5.886;2023-08-06T15:06:20;16.10;99.90
36800;DHT22;22752;51.960;5.886;2023-08-06T15:08:46;16.10;99.90
36800;DHT22;22752;51.960;5.886;2023-08-06T15:11:15;16.10;99.90
36800;DHT22;22752;51.960;5.886;2023-08-06T15:13:41;16.20;99.90
36800;DHT22;22752;51.960;5.886;2023-08-06T15:16:07;16.20;99.90
36800;DHT22;22752;51.960;5.886;2023-08-06T15:18:32;16.30;99.90
36800;DHT22;22752;51.960;5.886;2023-08-06T15:20:58;16.30;99.90
36800;DHT22;22752;51.960;5.886;2023-08-06T15:23:24;16.40;99.90
36800;DHT22;22752;51.960;5.886;2023-08-06T15:25:50;16.40;99.90
36800;DHT22;22752;51.960;5.886;2023-08-06T15:28:16;16.50;99.90
36800;DHT22;22752;51.960;5.886;2023-08-06T15:30:51;16.50;99.90